Terminal Aerodrome Forecast
Issued by NWS

Home | Current Version | Previous Version | Text Only | Print | Product List | Glossary On
Versions: 1 2 3 4 5 6 7 8 9 10 11 12 13 14 15 16 17 18 19 20 21 22 23 24 25 26 27 28 29 30 31 32 33 34 35 36 37 38 39 40
000
FTUS46 KLOX 242324
TAFLAX
TAF
KLAX 242324Z 2500/2606 26011KT P6SM FEW007
     FM250500 26006KT P6SM SKC
     FM250800 26004KT P6SM OVC006
     FM251000 VRB03KT 4SM BR OVC004
     FM251400 VRB03KT 5SM BR OVC007
     FM251800 27011KT 6SM HZ SCT008
     FM252000 26011KT P6SM SKC
     FM260300 25007KT P6SM SKC=

USA.gov is the U.S. government's official web portal to all federal, state and local government web resources and services.